BRS2101 SBBR-GVAC
Flight info
| Callsign | BRS2101 |
|---|---|
| Flight time | 5h 34m |
| Altitude | 37000 |
| Route | EPDEP UZ60 DOTKU DCT FLZ DCT TOGAB UZ18 ARTIG UN866 AMDOL DCT RANUR GAGUS1F |
| Aircraft | A319/M-SDE3FGHIRWY/LB1 |
Departure
| Time | 2026-04-17 12:12 |
|---|---|
| Airport | Presidente Juscelino Kubitschek International Airport (SBBR) |
Arrival
| Time | 2026-04-17 17:46 |
|---|---|
| Airport | Amílcar Cabral International Airport (GVAC) |
| Time | Latitude | Longitude | Altitude | Speed | Heading |
|---|---|---|---|---|---|
| 2026-04-17 11:49 | -15.86607 | -47.90499 | 3484 ft | 0 kts | 265° |
| 2026-04-17 12:05 | -15.86608 | -47.90516 | 3481 ft | 4 kts | 267° |
| 2026-04-17 12:05 | -15.86596 | -47.90546 | 3482 ft | 9 kts | 308° |
| 2026-04-17 12:05 | -15.86536 | -47.90643 | 3481 ft | 20 kts | 285° |
| 2026-04-17 12:05 | -15.86467 | -47.90702 | 3480 ft | 14 kts | 355° |
| 2026-04-17 12:06 | -15.86424 | -47.90778 | 3484 ft | 15 kts | 266° |
| 2026-04-17 12:06 | -15.86431 | -47.90893 | 3484 ft | 17 kts | 266° |
| 2026-04-17 12:06 | -15.86441 | -47.91030 | 3483 ft | 20 kts | 266° |
| 2026-04-17 12:06 | -15.86451 | -47.91186 | 3480 ft | 23 kts | 267° |
| 2026-04-17 12:07 | -15.86463 | -47.91381 | 3469 ft | 30 kts | 266° |
| 2026-04-17 12:07 | -15.86479 | -47.91606 | 3465 ft | 32 kts | 265° |
| 2026-04-17 12:07 | -15.86494 | -47.91838 | 3469 ft | 32 kts | 266° |
| 2026-04-17 12:07 | -15.86508 | -47.92076 | 3468 ft | 34 kts | 266° |
| 2026-04-17 12:08 | -15.86523 | -47.92318 | 3470 ft | 33 kts | 266° |
| 2026-04-17 12:08 | -15.86538 | -47.92551 | 3471 ft | 33 kts | 266° |
| 2026-04-17 12:08 | -15.86548 | -47.92709 | 3461 ft | 7 kts | 266° |
| 2026-04-17 12:08 | -15.86514 | -47.92761 | 3460 ft | 7 kts | 350° |
| 2026-04-17 12:09 | -15.86480 | -47.92766 | 3460 ft | 0 kts | 355° |
| 2026-04-17 12:10 | -15.86479 | -47.92766 | 3458 ft | 1 kts | 355° |
| 2026-04-17 12:10 | -15.86434 | -47.92768 | 3459 ft | 20 kts | 4° |
| 2026-04-17 12:10 | -15.86357 | -47.92719 | 3458 ft | 12 kts | 78° |
| 2026-04-17 12:10 | -15.86352 | -47.92670 | 3459 ft | 0 kts | 87° |
| 2026-04-17 12:11 | -15.86349 | -47.92610 | 3460 ft | 39 kts | 86° |
| 2026-04-17 12:11 | -15.86309 | -47.92010 | 3469 ft | 123 kts | 85° |
| 2026-04-17 12:11 | -15.86242 | -47.90903 | 3601 ft | 173 kts | 86° |
| 2026-04-17 12:12 | -15.85086 | -47.88894 | 5565 ft | 172 kts | 30° |
| 2026-04-17 12:12 | -15.83940 | -47.88348 | 6070 ft | 191 kts | 22° |
| 2026-04-17 12:12 | -15.82634 | -47.87831 | 6467 ft | 211 kts | 20° |
| 2026-04-17 12:12 | -15.81177 | -47.87280 | 6773 ft | 237 kts | 20° |
| 2026-04-17 12:13 | -15.79544 | -47.86667 | 7181 ft | 262 kts | 20° |
| 2026-04-17 12:13 | -15.77757 | -47.85997 | 7713 ft | 281 kts | 19° |
| 2026-04-17 12:13 | -15.75898 | -47.85298 | 8564 ft | 287 kts | 19° |
| 2026-04-17 12:13 | -15.74004 | -47.84584 | 9439 ft | 293 kts | 19° |
| 2026-04-17 12:14 | -15.72127 | -47.83682 | 10102 ft | 301 kts | 31° |
| 2026-04-17 12:14 | -15.70411 | -47.82364 | 10677 ft | 318 kts | 38° |
| 2026-04-17 12:14 | -15.68585 | -47.80934 | 10952 ft | 341 kts | 32° |
| 2026-04-17 12:14 | -15.66525 | -47.79589 | 11418 ft | 355 kts | 32° |
| 2026-04-17 12:15 | -15.64552 | -47.78016 | 12169 ft | 361 kts | 40° |
| 2026-04-17 12:15 | -15.62652 | -47.76329 | 12872 ft | 367 kts | 39° |
| 2026-04-17 12:15 | -15.60680 | -47.74612 | 13597 ft | 373 kts | 39° |
| 2026-04-17 12:15 | -15.58683 | -47.72858 | 14257 ft | 377 kts | 39° |
| 2026-04-17 12:16 | -15.56688 | -47.71086 | 14945 ft | 380 kts | 39° |
| 2026-04-17 12:16 | -15.54672 | -47.69282 | 15608 ft | 384 kts | 40° |
| 2026-04-17 12:16 | -15.52641 | -47.67457 | 16264 ft | 387 kts | 40° |
| 2026-04-17 12:16 | -15.50597 | -47.65619 | 16888 ft | 391 kts | 40° |
| 2026-04-17 12:17 | -15.48530 | -47.63760 | 17529 ft | 394 kts | 40° |
| 2026-04-17 12:17 | -15.46455 | -47.61894 | 18142 ft | 397 kts | 40° |
| 2026-04-17 12:17 | -15.44382 | -47.60030 | 18674 ft | 401 kts | 40° |
| 2026-04-17 12:17 | -15.42267 | -47.58129 | 19194 ft | 404 kts | 40° |
| 2026-04-17 12:18 | -15.40135 | -47.56213 | 19698 ft | 407 kts | 39° |
| 2026-04-17 12:18 | -15.37986 | -47.54282 | 20219 ft | 411 kts | 39° |
| 2026-04-17 12:18 | -15.35814 | -47.52331 | 20717 ft | 414 kts | 39° |
| 2026-04-17 12:18 | -15.33625 | -47.50366 | 21210 ft | 417 kts | 39° |
| 2026-04-17 12:19 | -15.31421 | -47.48387 | 21698 ft | 421 kts | 39° |
| 2026-04-17 12:19 | -15.29201 | -47.46396 | 22173 ft | 424 kts | 39° |
| 2026-04-17 12:19 | -15.26967 | -47.44390 | 22650 ft | 427 kts | 39° |
| 2026-04-17 12:19 | -15.24740 | -47.42392 | 23120 ft | 430 kts | 39° |
| 2026-04-17 12:20 | -15.22469 | -47.40356 | 23592 ft | 433 kts | 39° |
| 2026-04-17 12:20 | -15.20184 | -47.38309 | 23982 ft | 436 kts | 39° |
| 2026-04-17 12:20 | -15.17886 | -47.36250 | 24356 ft | 438 kts | 39° |
| 2026-04-17 12:20 | -15.15572 | -47.34179 | 24760 ft | 441 kts | 40° |
| 2026-04-17 12:21 | -15.13243 | -47.32094 | 25118 ft | 445 kts | 40° |
| 2026-04-17 12:21 | -15.10898 | -47.29996 | 25507 ft | 447 kts | 40° |
| 2026-04-17 12:21 | -15.08534 | -47.27882 | 25877 ft | 450 kts | 40° |
| 2026-04-17 12:21 | -15.06161 | -47.25759 | 26230 ft | 452 kts | 40° |
| 2026-04-17 12:22 | -15.03773 | -47.23624 | 26585 ft | 455 kts | 40° |
| 2026-04-17 12:22 | -15.01367 | -47.21473 | 26927 ft | 458 kts | 40° |
| 2026-04-17 12:22 | -14.98955 | -47.19317 | 27235 ft | 461 kts | 40° |
| 2026-04-17 12:22 | -14.96517 | -47.17139 | 27592 ft | 463 kts | 40° |
| 2026-04-17 12:23 | -14.94077 | -47.14959 | 27919 ft | 466 kts | 40° |
| 2026-04-17 12:23 | -14.91645 | -47.12786 | 28227 ft | 468 kts | 41° |
| 2026-04-17 12:23 | -14.89138 | -47.10548 | 28536 ft | 471 kts | 41° |
| 2026-04-17 12:23 | -14.86649 | -47.08327 | 28842 ft | 474 kts | 41° |
| 2026-04-17 12:24 | -14.84182 | -47.06126 | 29148 ft | 476 kts | 41° |
| 2026-04-17 12:24 | -14.81668 | -47.03883 | 29430 ft | 479 kts | 41° |
| 2026-04-17 12:24 | -14.79136 | -47.01625 | 29718 ft | 481 kts | 41° |
| 2026-04-17 12:24 | -14.76528 | -46.99419 | 30002 ft | 484 kts | 38° |
| 2026-04-17 12:25 | -14.73857 | -46.97289 | 30264 ft | 486 kts | 38° |
| 2026-04-17 12:25 | -14.71182 | -46.95145 | 30547 ft | 487 kts | 38° |
| 2026-04-17 12:25 | -14.68500 | -46.92992 | 30832 ft | 489 kts | 38° |
| 2026-04-17 12:25 | -14.65809 | -46.90831 | 31115 ft | 491 kts | 38° |
| 2026-04-17 12:26 | -14.63114 | -46.88669 | 31470 ft | 490 kts | 38° |
| 2026-04-17 12:26 | -14.60423 | -46.86511 | 31847 ft | 489 kts | 38° |
| 2026-04-17 12:26 | -14.57731 | -46.84353 | 32217 ft | 488 kts | 38° |
| 2026-04-17 12:26 | -14.55078 | -46.82228 | 32583 ft | 488 kts | 38° |
| 2026-04-17 12:27 | -14.52400 | -46.80082 | 32933 ft | 487 kts | 38° |
| 2026-04-17 12:27 | -14.49718 | -46.77936 | 33289 ft | 486 kts | 38° |
| 2026-04-17 12:27 | -14.47046 | -46.75799 | 33642 ft | 486 kts | 38° |
| 2026-04-17 12:27 | -14.44376 | -46.73665 | 33954 ft | 485 kts | 38° |
| 2026-04-17 12:28 | -14.41704 | -46.71531 | 34266 ft | 484 kts | 38° |
| 2026-04-17 12:28 | -14.39078 | -46.69434 | 34562 ft | 483 kts | 38° |
| 2026-04-17 12:28 | -14.36421 | -46.67312 | 34846 ft | 483 kts | 38° |
| 2026-04-17 12:28 | -14.33766 | -46.65194 | 35127 ft | 482 kts | 38° |
| 2026-04-17 12:29 | -14.31115 | -46.63079 | 35406 ft | 481 kts | 38° |
| 2026-04-17 12:29 | -14.28468 | -46.60968 | 35701 ft | 481 kts | 38° |
| 2026-04-17 12:29 | -14.25818 | -46.58855 | 35994 ft | 480 kts | 38° |
| 2026-04-17 12:29 | -14.23183 | -46.56754 | 36284 ft | 480 kts | 38° |
| 2026-04-17 12:30 | -14.20540 | -46.54648 | 36574 ft | 479 kts | 38° |
| 2026-04-17 12:30 | -14.17900 | -46.52544 | 36841 ft | 478 kts | 38° |
| 2026-04-17 12:30 | -14.15268 | -46.50445 | 36966 ft | 478 kts | 38° |
| 2026-04-17 12:31 | -14.10026 | -46.46266 | 36965 ft | 476 kts | 38° |
| 2026-04-17 12:31 | -14.04820 | -46.42118 | 36966 ft | 476 kts | 38° |
| 2026-04-17 12:32 | -13.99582 | -46.37949 | 36972 ft | 475 kts | 38° |
| 2026-04-17 12:32 | -13.94354 | -46.33789 | 36966 ft | 475 kts | 38° |
| 2026-04-17 12:33 | -13.89113 | -46.29623 | 36974 ft | 475 kts | 38° |
| 2026-04-17 12:33 | -13.83874 | -46.25460 | 36976 ft | 476 kts | 38° |
| 2026-04-17 12:34 | -13.78630 | -46.21296 | 36981 ft | 476 kts | 38° |
| 2026-04-17 12:34 | -13.73422 | -46.17162 | 36978 ft | 475 kts | 38° |
| 2026-04-17 12:35 | -13.68189 | -46.13011 | 36984 ft | 475 kts | 38° |
| 2026-04-17 12:35 | -13.62961 | -46.08866 | 36982 ft | 474 kts | 38° |
| 2026-04-17 12:37 | -13.42131 | -45.92376 | 36973 ft | 472 kts | 38° |
| 2026-04-17 12:38 | -13.36931 | -45.88266 | 36975 ft | 471 kts | 38° |
| 2026-04-17 12:38 | -13.31732 | -45.84158 | 36970 ft | 471 kts | 38° |
| 2026-04-17 12:39 | -13.26538 | -45.80056 | 36964 ft | 471 kts | 38° |
| 2026-04-17 12:39 | -13.21349 | -45.75960 | 36963 ft | 471 kts | 38° |
| 2026-04-17 12:40 | -13.16150 | -45.71859 | 36965 ft | 471 kts | 38° |
| 2026-04-17 12:40 | -13.11835 | -45.68455 | 36966 ft | 471 kts | 38° |
| 2026-04-17 12:41 | -13.05787 | -45.63689 | 36970 ft | 471 kts | 38° |
| 2026-04-17 12:41 | -13.01435 | -45.60266 | 36970 ft | 471 kts | 38° |
| 2026-04-17 12:42 | -12.96258 | -45.56196 | 36975 ft | 471 kts | 38° |
| 2026-04-17 12:42 | -12.91055 | -45.52107 | 36985 ft | 471 kts | 38° |
| 2026-04-17 12:43 | -12.85849 | -45.48018 | 36985 ft | 472 kts | 38° |
| 2026-04-17 12:43 | -12.80633 | -45.43922 | 36982 ft | 472 kts | 38° |
| 2026-04-17 12:44 | -12.75422 | -45.39834 | 36971 ft | 472 kts | 38° |
| 2026-04-17 12:44 | -12.70206 | -45.35743 | 36968 ft | 472 kts | 38° |
| 2026-04-17 12:45 | -12.65026 | -45.31683 | 36965 ft | 471 kts | 38° |
| 2026-04-17 12:45 | -12.59821 | -45.27605 | 36964 ft | 471 kts | 38° |
| 2026-04-17 12:46 | -12.54612 | -45.23527 | 36962 ft | 471 kts | 38° |
| 2026-04-17 12:46 | -12.49413 | -45.19456 | 36962 ft | 470 kts | 38° |
| 2026-04-17 12:47 | -12.44213 | -45.15385 | 36962 ft | 470 kts | 38° |
| 2026-04-17 12:47 | -12.39010 | -45.11315 | 36956 ft | 470 kts | 38° |
| 2026-04-17 12:48 | -12.33807 | -45.07247 | 36960 ft | 470 kts | 38° |
| 2026-04-17 12:48 | -12.28603 | -45.03181 | 36957 ft | 470 kts | 38° |
| 2026-04-17 12:49 | -12.23405 | -44.99121 | 36958 ft | 470 kts | 38° |
| 2026-04-17 12:49 | -12.18240 | -44.95090 | 36959 ft | 470 kts | 38° |
| 2026-04-17 12:50 | -12.13035 | -44.91028 | 36953 ft | 470 kts | 38° |
| 2026-04-17 12:50 | -12.07838 | -44.86975 | 36954 ft | 470 kts | 38° |
| 2026-04-17 12:51 | -12.02631 | -44.82916 | 36957 ft | 469 kts | 38° |
| 2026-04-17 12:51 | -11.97438 | -44.78870 | 36952 ft | 469 kts | 38° |
| 2026-04-17 12:52 | -11.92274 | -44.74849 | 36955 ft | 469 kts | 38° |
| 2026-04-17 12:52 | -11.87081 | -44.70808 | 36953 ft | 469 kts | 38° |
| 2026-04-17 12:53 | -11.81888 | -44.66767 | 36954 ft | 469 kts | 38° |
| 2026-04-17 12:53 | -11.76687 | -44.62723 | 36947 ft | 469 kts | 38° |
| 2026-04-17 12:54 | -11.71492 | -44.58686 | 36949 ft | 469 kts | 39° |
| 2026-04-17 12:54 | -11.66296 | -44.54650 | 36948 ft | 469 kts | 39° |
| 2026-04-17 12:55 | -11.61101 | -44.50616 | 36945 ft | 469 kts | 39° |
| 2026-04-17 12:55 | -11.55907 | -44.46585 | 36943 ft | 469 kts | 39° |
| 2026-04-17 12:56 | -11.50742 | -44.42579 | 36943 ft | 469 kts | 39° |
| 2026-04-17 12:56 | -11.45547 | -44.38551 | 36942 ft | 469 kts | 39° |
| 2026-04-17 12:57 | -11.40360 | -44.34532 | 36945 ft | 469 kts | 39° |
| 2026-04-17 12:57 | -11.35151 | -44.30497 | 36938 ft | 469 kts | 39° |
| 2026-04-17 12:58 | -11.29952 | -44.26472 | 36941 ft | 469 kts | 39° |
| 2026-04-17 12:58 | -11.24791 | -44.22478 | 36938 ft | 469 kts | 39° |
| 2026-04-17 12:59 | -11.19594 | -44.18458 | 36944 ft | 469 kts | 39° |
| 2026-04-17 12:59 | -11.14395 | -44.14438 | 36941 ft | 469 kts | 39° |
| 2026-04-17 13:00 | -11.09187 | -44.10413 | 36941 ft | 469 kts | 39° |
| 2026-04-17 13:00 | -11.03983 | -44.06392 | 36948 ft | 470 kts | 39° |
| 2026-04-17 13:01 | -10.98807 | -44.02394 | 36949 ft | 470 kts | 39° |
| 2026-04-17 13:01 | -10.93585 | -43.98362 | 36948 ft | 470 kts | 39° |
| 2026-04-17 13:02 | -10.88377 | -43.94344 | 36952 ft | 470 kts | 39° |
| 2026-04-17 13:02 | -10.83197 | -43.90348 | 36964 ft | 470 kts | 39° |
| 2026-04-17 13:03 | -10.77989 | -43.86333 | 36951 ft | 469 kts | 39° |
| 2026-04-17 13:03 | -10.72784 | -43.82322 | 36959 ft | 469 kts | 39° |
| 2026-04-17 13:04 | -10.67581 | -43.78317 | 36946 ft | 469 kts | 39° |
| 2026-04-17 13:04 | -10.62375 | -43.74312 | 36954 ft | 469 kts | 39° |
| 2026-04-17 13:05 | -10.57178 | -43.70314 | 36952 ft | 468 kts | 39° |
| 2026-04-17 13:05 | -10.51982 | -43.66319 | 36951 ft | 468 kts | 39° |
| 2026-04-17 13:06 | -10.46789 | -43.62329 | 36948 ft | 468 kts | 39° |
| 2026-04-17 13:06 | -10.41598 | -43.58342 | 36955 ft | 467 kts | 39° |
| 2026-04-17 13:07 | -10.36412 | -43.54361 | 36952 ft | 467 kts | 39° |
| 2026-04-17 13:07 | -10.31228 | -43.50383 | 36948 ft | 466 kts | 39° |
| 2026-04-17 13:08 | -10.26055 | -43.46415 | 36951 ft | 466 kts | 39° |
| 2026-04-17 13:08 | -10.20884 | -43.42450 | 36948 ft | 466 kts | 39° |
| 2026-04-17 13:09 | -10.15744 | -43.38510 | 36944 ft | 465 kts | 39° |
| 2026-04-17 13:09 | -10.10574 | -43.34547 | 36944 ft | 465 kts | 39° |
| 2026-04-17 13:10 | -10.05406 | -43.30588 | 36944 ft | 465 kts | 39° |
| 2026-04-17 13:10 | -10.00248 | -43.26637 | 36941 ft | 464 kts | 39° |
| 2026-04-17 13:11 | -9.95091 | -43.22690 | 36941 ft | 464 kts | 39° |
| 2026-04-17 13:11 | -9.89936 | -43.18746 | 36938 ft | 464 kts | 39° |
| 2026-04-17 13:12 | -9.84812 | -43.14826 | 36938 ft | 464 kts | 39° |
| 2026-04-17 13:12 | -9.77076 | -43.08912 | 36937 ft | 464 kts | 39° |
| 2026-04-17 13:13 | -9.71922 | -43.04974 | 36937 ft | 464 kts | 39° |
| 2026-04-17 13:13 | -9.66765 | -43.01035 | 36937 ft | 464 kts | 39° |
| 2026-04-17 13:14 | -9.61601 | -42.97092 | 36937 ft | 464 kts | 39° |
| 2026-04-17 13:14 | -9.56461 | -42.93169 | 36937 ft | 465 kts | 39° |
| 2026-04-17 13:15 | -9.51290 | -42.89224 | 36935 ft | 465 kts | 39° |
| 2026-04-17 13:15 | -9.46126 | -42.85286 | 36929 ft | 465 kts | 39° |
| 2026-04-17 13:16 | -9.40947 | -42.81338 | 36936 ft | 465 kts | 39° |
| 2026-04-17 13:16 | -9.35764 | -42.77388 | 36938 ft | 466 kts | 39° |
| 2026-04-17 13:17 | -9.30605 | -42.73459 | 36935 ft | 466 kts | 39° |
| 2026-04-17 13:17 | -9.25420 | -42.69510 | 36936 ft | 466 kts | 39° |
| 2026-04-17 13:18 | -9.20232 | -42.65561 | 36932 ft | 467 kts | 39° |
| 2026-04-17 13:18 | -9.15034 | -42.61607 | 36934 ft | 467 kts | 39° |
| 2026-04-17 13:19 | -9.09834 | -42.57652 | 36934 ft | 467 kts | 39° |
| 2026-04-17 13:19 | -9.04639 | -42.53702 | 36933 ft | 467 kts | 39° |
| 2026-04-17 13:20 | -8.99443 | -42.49753 | 36930 ft | 467 kts | 39° |
| 2026-04-17 13:20 | -8.94242 | -42.45801 | 36929 ft | 468 kts | 39° |
| 2026-04-17 13:21 | -8.89067 | -42.41872 | 36927 ft | 468 kts | 39° |
| 2026-04-17 13:21 | -8.83856 | -42.37918 | 36925 ft | 468 kts | 39° |
| 2026-04-17 13:22 | -8.78642 | -42.33962 | 36922 ft | 468 kts | 39° |
| 2026-04-17 13:22 | -8.73430 | -42.30010 | 36924 ft | 468 kts | 39° |
| 2026-04-17 13:23 | -8.68214 | -42.26055 | 36920 ft | 469 kts | 39° |
| 2026-04-17 13:23 | -8.63022 | -42.22121 | 36922 ft | 469 kts | 39° |
| 2026-04-17 13:24 | -8.57799 | -42.18164 | 36918 ft | 469 kts | 39° |
| 2026-04-17 13:24 | -8.52567 | -42.14202 | 36915 ft | 469 kts | 39° |
| 2026-04-17 13:25 | -8.47339 | -42.10244 | 36912 ft | 470 kts | 39° |
| 2026-04-17 13:25 | -8.42103 | -42.06282 | 36915 ft | 470 kts | 39° |
| 2026-04-17 13:26 | -8.36878 | -42.02329 | 36911 ft | 470 kts | 39° |
| 2026-04-17 13:26 | -8.31643 | -41.98369 | 36907 ft | 470 kts | 39° |
| 2026-04-17 13:27 | -8.26438 | -41.94433 | 36910 ft | 471 kts | 38° |
| 2026-04-17 13:27 | -8.21183 | -41.90461 | 36909 ft | 471 kts | 38° |
| 2026-04-17 13:28 | -8.15934 | -41.86494 | 36910 ft | 471 kts | 38° |
| 2026-04-17 13:28 | -8.11566 | -41.83195 | 36908 ft | 472 kts | 38° |
| 2026-04-17 13:29 | -8.06303 | -41.79221 | 36906 ft | 472 kts | 38° |
| 2026-04-17 13:29 | -8.01037 | -41.75246 | 36911 ft | 472 kts | 38° |
| 2026-04-17 13:30 | -7.95766 | -41.71269 | 36912 ft | 473 kts | 37° |
| 2026-04-17 13:30 | -7.90526 | -41.67315 | 36913 ft | 473 kts | 37° |
| 2026-04-17 13:31 | -7.85243 | -41.63332 | 36907 ft | 474 kts | 37° |
| 2026-04-17 13:31 | -7.79962 | -41.59350 | 36912 ft | 474 kts | 37° |
| 2026-04-17 13:32 | -7.74676 | -41.55367 | 36912 ft | 474 kts | 37° |
| 2026-04-17 13:32 | -7.69379 | -41.51377 | 36911 ft | 475 kts | 36° |
| 2026-04-17 13:33 | -7.64117 | -41.47415 | 36913 ft | 475 kts | 36° |
| 2026-04-17 13:33 | -7.58820 | -41.43428 | 36910 ft | 475 kts | 36° |
| 2026-04-17 13:34 | -7.53519 | -41.39439 | 36909 ft | 476 kts | 36° |
| 2026-04-17 13:34 | -7.48211 | -41.35445 | 36909 ft | 476 kts | 36° |
| 2026-04-17 13:35 | -7.42908 | -41.31456 | 36913 ft | 476 kts | 35° |
| 2026-04-17 13:35 | -7.37626 | -41.27485 | 36913 ft | 476 kts | 35° |
| 2026-04-17 13:36 | -7.32322 | -41.23497 | 36910 ft | 476 kts | 35° |
| 2026-04-17 13:36 | -7.27012 | -41.19508 | 36909 ft | 475 kts | 34° |
| 2026-04-17 13:37 | -7.21703 | -41.15520 | 36905 ft | 475 kts | 34° |
| 2026-04-17 13:37 | -7.16394 | -41.11534 | 36905 ft | 475 kts | 34° |
| 2026-04-17 13:38 | -7.11099 | -41.07559 | 36904 ft | 475 kts | 34° |
| 2026-04-17 13:38 | -7.05828 | -41.03604 | 36908 ft | 475 kts | 34° |
| 2026-04-17 13:39 | -7.00535 | -40.99634 | 36911 ft | 475 kts | 34° |
| 2026-04-17 13:39 | -6.95237 | -40.95661 | 36914 ft | 475 kts | 34° |
| 2026-04-17 13:40 | -6.89929 | -40.91682 | 36910 ft | 475 kts | 34° |
| 2026-04-17 13:40 | -6.84634 | -40.87714 | 36914 ft | 474 kts | 34° |
| 2026-04-17 13:41 | -6.79336 | -40.83744 | 36915 ft | 474 kts | 34° |
| 2026-04-17 13:41 | -6.74075 | -40.79803 | 36912 ft | 474 kts | 34° |
| 2026-04-17 13:42 | -6.68787 | -40.75842 | 36915 ft | 474 kts | 34° |
| 2026-04-17 13:42 | -6.63496 | -40.71880 | 36916 ft | 473 kts | 34° |
| 2026-04-17 13:43 | -6.58214 | -40.67926 | 36914 ft | 473 kts | 34° |
| 2026-04-17 13:43 | -6.52936 | -40.63975 | 36916 ft | 473 kts | 34° |
| 2026-04-17 13:44 | -6.47661 | -40.60027 | 36911 ft | 472 kts | 34° |
| 2026-04-17 13:44 | -6.42386 | -40.56081 | 36911 ft | 473 kts | 34° |
| 2026-04-17 13:45 | -6.37134 | -40.52153 | 36910 ft | 473 kts | 34° |
| 2026-04-17 13:45 | -6.31858 | -40.48207 | 36908 ft | 473 kts | 34° |
| 2026-04-17 13:46 | -6.26580 | -40.44261 | 36908 ft | 473 kts | 34° |
| 2026-04-17 13:46 | -6.21303 | -40.40318 | 36905 ft | 473 kts | 34° |
| 2026-04-17 13:47 | -6.16019 | -40.36369 | 36902 ft | 473 kts | 34° |
| 2026-04-17 13:47 | -6.10739 | -40.32425 | 36902 ft | 473 kts | 34° |
| 2026-04-17 13:48 | -6.05459 | -40.28481 | 36901 ft | 473 kts | 34° |
| 2026-04-17 13:48 | -6.00210 | -40.24562 | 36905 ft | 473 kts | 34° |
| 2026-04-17 13:49 | -5.94932 | -40.20622 | 36904 ft | 472 kts | 34° |
| 2026-04-17 13:49 | -5.89655 | -40.16685 | 36903 ft | 472 kts | 34° |
| 2026-04-17 13:50 | -5.84373 | -40.12745 | 36906 ft | 472 kts | 34° |
| 2026-04-17 13:50 | -5.79099 | -40.08812 | 36905 ft | 472 kts | 34° |
| 2026-04-17 13:51 | -5.73828 | -40.04882 | 36900 ft | 472 kts | 34° |
| 2026-04-17 13:51 | -5.68556 | -40.00953 | 36903 ft | 471 kts | 34° |
| 2026-04-17 13:52 | -5.63326 | -39.97056 | 36912 ft | 470 kts | 34° |
| 2026-04-17 13:52 | -5.58063 | -39.93134 | 36908 ft | 470 kts | 34° |
| 2026-04-17 13:53 | -5.52820 | -39.89230 | 36905 ft | 469 kts | 34° |
| 2026-04-17 13:53 | -5.47609 | -39.85349 | 36909 ft | 468 kts | 34° |
| 2026-04-17 13:54 | -5.39764 | -39.79510 | 36895 ft | 467 kts | 34° |
| 2026-04-17 13:55 | -5.31947 | -39.73691 | 36885 ft | 466 kts | 34° |
| 2026-04-17 13:56 | -5.21558 | -39.65963 | 36884 ft | 464 kts | 34° |
| 2026-04-17 13:56 | -5.16403 | -39.62129 | 36882 ft | 463 kts | 34° |
| 2026-04-17 13:57 | -5.11230 | -39.58283 | 36872 ft | 463 kts | 34° |
| 2026-04-17 13:58 | -5.03464 | -39.52510 | 36868 ft | 462 kts | 34° |
| 2026-04-17 13:58 | -4.95710 | -39.46748 | 36874 ft | 462 kts | 34° |
| 2026-04-17 13:59 | -4.87946 | -39.40980 | 36874 ft | 463 kts | 34° |
| 2026-04-17 14:00 | -4.82808 | -39.37164 | 36870 ft | 463 kts | 34° |
| 2026-04-17 14:00 | -4.77627 | -39.33316 | 36881 ft | 464 kts | 35° |
| 2026-04-17 14:01 | -4.72436 | -39.29462 | 36879 ft | 464 kts | 35° |
| 2026-04-17 14:01 | -4.67245 | -39.25608 | 36880 ft | 464 kts | 35° |
| 2026-04-17 14:02 | -4.62051 | -39.21753 | 36888 ft | 465 kts | 35° |
| 2026-04-17 14:02 | -4.56856 | -39.17898 | 36888 ft | 465 kts | 35° |
| 2026-04-17 14:03 | -4.51666 | -39.14045 | 36887 ft | 464 kts | 35° |
| 2026-04-17 14:03 | -4.46479 | -39.10191 | 36886 ft | 464 kts | 35° |
| 2026-04-17 14:04 | -4.41295 | -39.06341 | 36887 ft | 464 kts | 35° |
| 2026-04-17 14:04 | -4.36179 | -39.02403 | 36884 ft | 464 kts | 37° |
| 2026-04-17 14:05 | -4.31181 | -38.98306 | 36879 ft | 464 kts | 38° |
| 2026-04-17 14:05 | -4.26165 | -38.94225 | 36876 ft | 464 kts | 37° |
| 2026-04-17 14:06 | -4.21177 | -38.90196 | 36873 ft | 464 kts | 37° |
| 2026-04-17 14:06 | -4.16154 | -38.86147 | 36872 ft | 463 kts | 37° |
| 2026-04-17 14:07 | -4.11136 | -38.82101 | 36869 ft | 463 kts | 37° |
| 2026-04-17 14:07 | -4.06122 | -38.78058 | 36867 ft | 462 kts | 37° |
| 2026-04-17 14:08 | -4.01116 | -38.74023 | 36866 ft | 462 kts | 37° |
| 2026-04-17 14:08 | -3.96109 | -38.69987 | 36863 ft | 461 kts | 37° |
| 2026-04-17 14:09 | -3.91111 | -38.65959 | 36851 ft | 461 kts | 37° |
| 2026-04-17 14:09 | -3.86118 | -38.61937 | 36856 ft | 461 kts | 37° |
| 2026-04-17 14:10 | -3.81136 | -38.57899 | 36847 ft | 461 kts | 39° |
| 2026-04-17 14:10 | -3.76630 | -38.53326 | 36851 ft | 462 kts | 49° |
| 2026-04-17 14:11 | -3.72878 | -38.48087 | 36846 ft | 464 kts | 56° |
| 2026-04-17 14:11 | -3.69382 | -38.42702 | 36850 ft | 464 kts | 56° |
| 2026-04-17 14:12 | -3.65854 | -38.37290 | 36852 ft | 464 kts | 55° |
| 2026-04-17 14:12 | -3.62329 | -38.31877 | 36852 ft | 464 kts | 56° |
| 2026-04-17 14:13 | -3.57036 | -38.23747 | 36854 ft | 464 kts | 55° |
| 2026-04-17 14:13 | -3.53508 | -38.18328 | 36855 ft | 465 kts | 55° |
| 2026-04-17 14:14 | -3.49973 | -38.12899 | 36861 ft | 465 kts | 55° |
| 2026-04-17 14:14 | -3.46442 | -38.07479 | 36860 ft | 465 kts | 55° |
| 2026-04-17 14:15 | -3.42923 | -38.02079 | 36863 ft | 466 kts | 55° |
| 2026-04-17 14:15 | -3.39380 | -37.96642 | 36865 ft | 466 kts | 55° |
| 2026-04-17 14:16 | -3.35836 | -37.91202 | 36868 ft | 466 kts | 55° |
| 2026-04-17 14:16 | -3.32297 | -37.85771 | 36874 ft | 466 kts | 55° |
| 2026-04-17 14:17 | -3.28755 | -37.80338 | 36881 ft | 466 kts | 55° |
| 2026-04-17 14:17 | -3.25216 | -37.74914 | 36884 ft | 465 kts | 55° |
| 2026-04-17 14:18 | -3.21676 | -37.69539 | 36886 ft | 464 kts | 55° |
| 2026-04-17 14:18 | -3.18705 | -37.65028 | 36884 ft | 463 kts | 54° |
| 2026-04-17 14:19 | -3.15166 | -37.59649 | 36884 ft | 462 kts | 54° |
| 2026-04-17 14:19 | -3.11637 | -37.54285 | 36878 ft | 461 kts | 55° |
| 2026-04-17 14:20 | -3.08117 | -37.48937 | 36871 ft | 460 kts | 54° |
| 2026-04-17 14:20 | -3.04626 | -37.43632 | 36870 ft | 458 kts | 54° |
| 2026-04-17 14:21 | -3.01119 | -37.38302 | 36860 ft | 457 kts | 54° |
| 2026-04-17 14:21 | -2.97625 | -37.32993 | 36855 ft | 456 kts | 54° |
| 2026-04-17 14:22 | -2.94131 | -37.27689 | 36850 ft | 456 kts | 54° |
| 2026-04-17 14:22 | -2.90669 | -37.22432 | 36848 ft | 455 kts | 54° |
| 2026-04-17 14:23 | -2.87177 | -37.17131 | 36842 ft | 455 kts | 55° |
| 2026-04-17 14:23 | -2.83699 | -37.11850 | 36848 ft | 455 kts | 54° |
| 2026-04-17 14:24 | -2.80215 | -37.06560 | 36851 ft | 455 kts | 54° |
| 2026-04-17 14:24 | -2.76736 | -37.01280 | 36850 ft | 455 kts | 55° |
| 2026-04-17 14:25 | -2.73273 | -36.96024 | 36860 ft | 455 kts | 55° |
| 2026-04-17 14:25 | -2.69786 | -36.90732 | 36860 ft | 455 kts | 54° |
| 2026-04-17 14:26 | -2.66303 | -36.85448 | 36862 ft | 455 kts | 55° |
| 2026-04-17 14:26 | -2.62820 | -36.80165 | 36867 ft | 455 kts | 55° |
| 2026-04-17 14:27 | -2.59332 | -36.74873 | 36869 ft | 455 kts | 55° |
| 2026-04-17 14:27 | -2.55868 | -36.69618 | 36874 ft | 455 kts | 55° |
| 2026-04-17 14:28 | -2.52365 | -36.64307 | 36876 ft | 454 kts | 55° |
| 2026-04-17 14:28 | -2.48908 | -36.59065 | 36880 ft | 453 kts | 55° |
| 2026-04-17 14:29 | -2.45440 | -36.53807 | 36877 ft | 452 kts | 55° |
| 2026-04-17 14:29 | -2.41980 | -36.48562 | 36876 ft | 451 kts | 55° |
| 2026-04-17 14:30 | -2.38523 | -36.43322 | 36875 ft | 450 kts | 55° |
| 2026-04-17 14:30 | -2.35074 | -36.38094 | 36865 ft | 449 kts | 55° |
| 2026-04-17 14:31 | -2.31637 | -36.32885 | 36861 ft | 448 kts | 55° |
| 2026-04-17 14:31 | -2.28225 | -36.27715 | 36857 ft | 447 kts | 55° |
| 2026-04-17 14:32 | -2.24797 | -36.22519 | 36857 ft | 447 kts | 56° |
| 2026-04-17 14:32 | -2.21378 | -36.17340 | 36854 ft | 446 kts | 56° |
| 2026-04-17 14:33 | -2.17958 | -36.12158 | 36850 ft | 446 kts | 56° |
| 2026-04-17 14:33 | -2.14545 | -36.06989 | 36853 ft | 445 kts | 56° |
| 2026-04-17 14:34 | -2.11129 | -36.01814 | 36847 ft | 445 kts | 56° |
| 2026-04-17 14:34 | -2.07718 | -35.96648 | 36848 ft | 445 kts | 56° |
| 2026-04-17 14:35 | -2.04301 | -35.91473 | 36850 ft | 445 kts | 56° |
| 2026-04-17 14:35 | -2.00882 | -35.86296 | 36854 ft | 446 kts | 56° |
| 2026-04-17 14:36 | -1.97484 | -35.81151 | 36851 ft | 446 kts | 56° |
| 2026-04-17 14:36 | -1.94060 | -35.75967 | 36852 ft | 446 kts | 56° |
| 2026-04-17 14:37 | -1.90639 | -35.70788 | 36854 ft | 447 kts | 56° |
| 2026-04-17 14:37 | -1.87210 | -35.65597 | 36856 ft | 447 kts | 56° |
| 2026-04-17 14:38 | -1.83783 | -35.60411 | 36862 ft | 447 kts | 56° |
| 2026-04-17 14:38 | -1.80349 | -35.55214 | 36862 ft | 448 kts | 56° |
| 2026-04-17 14:39 | -1.76893 | -35.50078 | 36862 ft | 448 kts | 52° |
| 2026-04-17 14:39 | -1.72568 | -35.45625 | 36863 ft | 448 kts | 39° |
| 2026-04-17 14:40 | -1.67307 | -35.42274 | 36861 ft | 448 kts | 29° |
| 2026-04-17 14:40 | -1.61830 | -35.39273 | 36859 ft | 448 kts | 29° |
| 2026-04-17 14:41 | -1.56366 | -35.36263 | 36859 ft | 449 kts | 29° |
| 2026-04-17 14:41 | -1.50887 | -35.33250 | 36860 ft | 449 kts | 29° |
| 2026-04-17 14:42 | -1.45450 | -35.30263 | 36861 ft | 449 kts | 29° |
| 2026-04-17 14:42 | -1.39966 | -35.27248 | 36861 ft | 449 kts | 29° |
| 2026-04-17 14:43 | -1.34488 | -35.24239 | 36864 ft | 449 kts | 29° |
| 2026-04-17 14:43 | -1.29001 | -35.21223 | 36857 ft | 450 kts | 29° |
| 2026-04-17 14:44 | -1.23518 | -35.18210 | 36858 ft | 450 kts | 29° |
| 2026-04-17 14:44 | -1.18031 | -35.15196 | 36856 ft | 450 kts | 29° |
| 2026-04-17 14:45 | -1.12523 | -35.12171 | 36854 ft | 451 kts | 29° |
| 2026-04-17 14:45 | -1.07029 | -35.09153 | 36851 ft | 451 kts | 29° |
| 2026-04-17 14:46 | -1.01557 | -35.06147 | 36851 ft | 451 kts | 29° |
| 2026-04-17 14:46 | -0.96051 | -35.03122 | 36851 ft | 452 kts | 29° |
| 2026-04-17 14:47 | -0.90501 | -35.00074 | 36852 ft | 453 kts | 29° |
| 2026-04-17 14:47 | -0.85006 | -34.97055 | 36853 ft | 454 kts | 29° |
| 2026-04-17 14:48 | -0.79473 | -34.94016 | 36855 ft | 454 kts | 29° |
| 2026-04-17 14:48 | -0.73921 | -34.90967 | 36852 ft | 455 kts | 29° |
| 2026-04-17 14:49 | -0.68358 | -34.87912 | 36856 ft | 456 kts | 29° |
| 2026-04-17 14:49 | -0.62787 | -34.84853 | 36861 ft | 457 kts | 29° |
| 2026-04-17 14:50 | -0.57218 | -34.81795 | 36867 ft | 457 kts | 29° |
| 2026-04-17 14:50 | -0.51644 | -34.78735 | 36870 ft | 457 kts | 29° |
| 2026-04-17 14:51 | -0.46059 | -34.75669 | 36867 ft | 457 kts | 29° |
| 2026-04-17 14:51 | -0.40521 | -34.72628 | 36869 ft | 457 kts | 29° |
| 2026-04-17 14:52 | -0.34949 | -34.69568 | 36865 ft | 457 kts | 29° |
| 2026-04-17 14:52 | -0.29371 | -34.66505 | 36861 ft | 457 kts | 29° |
| 2026-04-17 14:53 | -0.23795 | -34.63444 | 36850 ft | 457 kts | 29° |
| 2026-04-17 14:53 | -0.18228 | -34.60387 | 36845 ft | 457 kts | 29° |
| 2026-04-17 14:54 | -0.12647 | -34.57324 | 36834 ft | 457 kts | 29° |
| 2026-04-17 14:54 | -0.07098 | -34.54277 | 36826 ft | 458 kts | 29° |
| 2026-04-17 14:55 | -0.01501 | -34.51204 | 36835 ft | 459 kts | 29° |
| 2026-04-17 14:55 | 0.04108 | -34.48124 | 36835 ft | 460 kts | 29° |
| 2026-04-17 14:56 | 0.09720 | -34.45043 | 36838 ft | 461 kts | 28° |
| 2026-04-17 14:56 | 0.15351 | -34.41951 | 36847 ft | 462 kts | 28° |
| 2026-04-17 14:57 | 0.20951 | -34.38876 | 36854 ft | 462 kts | 28° |
| 2026-04-17 14:57 | 0.26585 | -34.35782 | 36860 ft | 462 kts | 28° |
| 2026-04-17 14:58 | 0.32228 | -34.32683 | 36865 ft | 462 kts | 28° |
| 2026-04-17 14:58 | 0.37870 | -34.29585 | 36866 ft | 462 kts | 28° |
| 2026-04-17 14:59 | 0.43497 | -34.26496 | 36869 ft | 461 kts | 28° |
| 2026-04-17 14:59 | 0.49122 | -34.23408 | 36869 ft | 460 kts | 28° |
| 2026-04-17 15:00 | 0.54733 | -34.20328 | 36869 ft | 459 kts | 28° |
| 2026-04-17 15:00 | 0.60290 | -34.17278 | 36865 ft | 457 kts | 28° |
| 2026-04-17 15:01 | 0.65856 | -34.14223 | 36859 ft | 456 kts | 29° |
| 2026-04-17 15:01 | 0.71422 | -34.11169 | 36853 ft | 454 kts | 29° |
| 2026-04-17 15:02 | 0.76951 | -34.08132 | 36839 ft | 453 kts | 29° |
| 2026-04-17 15:02 | 0.82479 | -34.05097 | 36816 ft | 452 kts | 29° |
| 2026-04-17 15:03 | 0.87991 | -34.02071 | 36818 ft | 452 kts | 29° |
| 2026-04-17 15:03 | 0.93501 | -33.99046 | 36814 ft | 452 kts | 29° |
| 2026-04-17 15:04 | 0.98990 | -33.96032 | 36814 ft | 453 kts | 29° |
| 2026-04-17 15:04 | 1.04519 | -33.92997 | 36810 ft | 454 kts | 29° |
| 2026-04-17 15:05 | 1.10070 | -33.89949 | 36818 ft | 455 kts | 29° |
| 2026-04-17 15:05 | 1.15628 | -33.86897 | 36825 ft | 457 kts | 29° |
| 2026-04-17 15:06 | 1.20266 | -33.84349 | 36822 ft | 458 kts | 29° |
| 2026-04-17 15:06 | 1.25870 | -33.81273 | 36832 ft | 460 kts | 29° |
| 2026-04-17 15:07 | 1.31483 | -33.78189 | 36839 ft | 461 kts | 29° |
| 2026-04-17 15:07 | 1.37116 | -33.75095 | 36846 ft | 463 kts | 29° |
| 2026-04-17 15:08 | 1.42776 | -33.71985 | 36847 ft | 464 kts | 29° |
| 2026-04-17 15:08 | 1.48453 | -33.68867 | 36855 ft | 466 kts | 28° |
| 2026-04-17 15:09 | 1.54134 | -33.65745 | 36855 ft | 467 kts | 28° |
| 2026-04-17 15:09 | 1.59826 | -33.62618 | 36860 ft | 467 kts | 28° |
| 2026-04-17 15:10 | 1.65524 | -33.59488 | 36862 ft | 468 kts | 28° |
| 2026-04-17 15:11 | 1.74085 | -33.54785 | 36861 ft | 468 kts | 28° |
| 2026-04-17 15:11 | 1.79749 | -33.51673 | 36860 ft | 468 kts | 28° |
| 2026-04-17 15:12 | 1.85457 | -33.48537 | 36859 ft | 467 kts | 28° |
| 2026-04-17 15:12 | 1.91160 | -33.45404 | 36855 ft | 467 kts | 28° |
| 2026-04-17 15:13 | 1.96846 | -33.42280 | 36848 ft | 466 kts | 28° |
| 2026-04-17 15:13 | 2.02536 | -33.39153 | 36845 ft | 466 kts | 28° |
| 2026-04-17 15:14 | 2.08212 | -33.36032 | 36843 ft | 465 kts | 28° |
| 2026-04-17 15:14 | 2.13891 | -33.32911 | 36834 ft | 465 kts | 28° |
| 2026-04-17 15:15 | 2.19530 | -33.29811 | 36831 ft | 465 kts | 28° |
| 2026-04-17 15:15 | 2.25192 | -33.26699 | 36836 ft | 464 kts | 28° |
| 2026-04-17 15:16 | 2.30852 | -33.23587 | 36836 ft | 464 kts | 28° |
| 2026-04-17 15:16 | 2.36520 | -33.20471 | 36841 ft | 464 kts | 28° |
| 2026-04-17 15:17 | 2.42177 | -33.17360 | 36840 ft | 464 kts | 28° |
| 2026-04-17 15:17 | 2.47842 | -33.14244 | 36843 ft | 464 kts | 27° |
| 2026-04-17 15:18 | 2.53498 | -33.11134 | 36844 ft | 464 kts | 27° |
| 2026-04-17 15:18 | 2.59165 | -33.08017 | 36843 ft | 464 kts | 27° |
| 2026-04-17 15:19 | 2.64794 | -33.04921 | 36839 ft | 464 kts | 27° |
| 2026-04-17 15:19 | 2.70462 | -33.01803 | 36831 ft | 464 kts | 27° |
| 2026-04-17 15:20 | 2.76123 | -32.98688 | 36832 ft | 465 kts | 27° |
| 2026-04-17 15:20 | 2.81795 | -32.95568 | 36830 ft | 465 kts | 27° |
| 2026-04-17 15:21 | 2.87470 | -32.92445 | 36829 ft | 465 kts | 27° |
| 2026-04-17 15:21 | 2.93110 | -32.89341 | 36836 ft | 465 kts | 27° |
| 2026-04-17 15:22 | 2.98780 | -32.86220 | 36836 ft | 465 kts | 27° |
| 2026-04-17 15:22 | 3.04453 | -32.83097 | 36836 ft | 466 kts | 27° |
| 2026-04-17 15:23 | 3.10135 | -32.79968 | 36836 ft | 466 kts | 27° |
| 2026-04-17 15:23 | 3.15819 | -32.76838 | 36836 ft | 466 kts | 27° |
| 2026-04-17 15:24 | 3.21496 | -32.73712 | 36838 ft | 466 kts | 27° |
| 2026-04-17 15:24 | 3.27176 | -32.70584 | 36842 ft | 466 kts | 27° |
| 2026-04-17 15:25 | 3.32856 | -32.67454 | 36840 ft | 465 kts | 27° |
| 2026-04-17 15:25 | 3.38497 | -32.64347 | 36837 ft | 465 kts | 27° |
| 2026-04-17 15:26 | 3.44166 | -32.61223 | 36837 ft | 465 kts | 27° |
| 2026-04-17 15:26 | 3.49832 | -32.58100 | 36837 ft | 465 kts | 27° |
| 2026-04-17 15:27 | 3.55501 | -32.54976 | 36835 ft | 464 kts | 27° |
| 2026-04-17 15:27 | 3.61167 | -32.51853 | 36830 ft | 464 kts | 27° |
| 2026-04-17 15:28 | 3.66829 | -32.48731 | 36830 ft | 464 kts | 27° |
| 2026-04-17 15:28 | 3.72485 | -32.45613 | 36823 ft | 464 kts | 27° |
| 2026-04-17 15:29 | 3.78104 | -32.42514 | 36822 ft | 464 kts | 27° |
| 2026-04-17 15:29 | 3.83754 | -32.39398 | 36821 ft | 464 kts | 27° |
| 2026-04-17 15:30 | 3.89400 | -32.36284 | 36819 ft | 464 kts | 27° |
| 2026-04-17 15:30 | 3.95046 | -32.33169 | 36818 ft | 464 kts | 27° |
| 2026-04-17 15:31 | 4.00693 | -32.30053 | 36822 ft | 464 kts | 27° |
| 2026-04-17 15:31 | 4.06351 | -32.26930 | 36819 ft | 464 kts | 27° |
| 2026-04-17 15:32 | 4.12009 | -32.23807 | 36831 ft | 464 kts | 27° |
| 2026-04-17 15:32 | 4.17631 | -32.20703 | 36828 ft | 464 kts | 27° |
| 2026-04-17 15:33 | 4.23291 | -32.17578 | 36830 ft | 464 kts | 27° |
| 2026-04-17 15:33 | 4.28941 | -32.14458 | 36836 ft | 464 kts | 27° |
| 2026-04-17 15:34 | 4.34601 | -32.11332 | 36836 ft | 464 kts | 27° |
| 2026-04-17 15:34 | 4.40260 | -32.08206 | 36835 ft | 464 kts | 27° |
| 2026-04-17 15:35 | 4.45872 | -32.05105 | 36823 ft | 464 kts | 27° |
| 2026-04-17 15:35 | 4.51520 | -32.01984 | 36837 ft | 464 kts | 27° |
| 2026-04-17 15:36 | 4.57178 | -31.98857 | 36835 ft | 464 kts | 27° |
| 2026-04-17 15:36 | 4.62825 | -31.95735 | 36838 ft | 464 kts | 27° |
| 2026-04-17 15:37 | 4.68483 | -31.92607 | 36835 ft | 464 kts | 27° |
| 2026-04-17 15:37 | 4.74140 | -31.89478 | 36830 ft | 464 kts | 27° |
| 2026-04-17 15:38 | 4.79788 | -31.86354 | 36828 ft | 464 kts | 27° |
| 2026-04-17 15:38 | 4.85407 | -31.83245 | 36823 ft | 464 kts | 27° |
| 2026-04-17 15:39 | 4.91055 | -31.80120 | 36825 ft | 464 kts | 27° |
| 2026-04-17 15:39 | 4.96740 | -31.76974 | 36830 ft | 464 kts | 26° |
| 2026-04-17 15:40 | 5.02359 | -31.73863 | 36839 ft | 464 kts | 26° |
| 2026-04-17 15:40 | 5.08016 | -31.70731 | 36826 ft | 464 kts | 26° |
| 2026-04-17 15:41 | 5.13663 | -31.67604 | 36831 ft | 464 kts | 26° |
| 2026-04-17 15:41 | 5.19311 | -31.64476 | 36831 ft | 464 kts | 26° |
| 2026-04-17 15:42 | 5.24963 | -31.61332 | 36843 ft | 464 kts | 27° |
| 2026-04-17 15:42 | 5.30563 | -31.58178 | 36841 ft | 464 kts | 27° |
| 2026-04-17 15:43 | 5.36202 | -31.55004 | 36846 ft | 464 kts | 27° |
| 2026-04-17 15:43 | 5.41844 | -31.51832 | 36844 ft | 464 kts | 27° |
| 2026-04-17 15:44 | 5.47478 | -31.48666 | 36832 ft | 464 kts | 27° |
| 2026-04-17 15:44 | 5.53112 | -31.45498 | 36831 ft | 464 kts | 26° |
| 2026-04-17 15:45 | 5.58747 | -31.42329 | 36832 ft | 464 kts | 26° |
| 2026-04-17 15:45 | 5.64401 | -31.39148 | 36834 ft | 465 kts | 26° |
| 2026-04-17 15:46 | 5.70039 | -31.35975 | 36830 ft | 465 kts | 26° |
| 2026-04-17 15:46 | 5.75678 | -31.32802 | 36843 ft | 465 kts | 26° |
| 2026-04-17 15:47 | 5.81290 | -31.29642 | 36838 ft | 465 kts | 26° |
| 2026-04-17 15:47 | 5.86931 | -31.26466 | 36838 ft | 465 kts | 26° |
| 2026-04-17 15:48 | 5.92592 | -31.23278 | 36840 ft | 465 kts | 26° |
| 2026-04-17 15:48 | 5.98239 | -31.20097 | 36841 ft | 465 kts | 26° |
| 2026-04-17 15:49 | 6.03886 | -31.16915 | 36837 ft | 465 kts | 26° |
| 2026-04-17 15:49 | 6.09530 | -31.13734 | 36841 ft | 465 kts | 26° |
| 2026-04-17 15:50 | 6.15185 | -31.10546 | 36835 ft | 465 kts | 26° |
| 2026-04-17 15:50 | 6.20833 | -31.07362 | 36838 ft | 465 kts | 26° |
| 2026-04-17 15:51 | 6.26443 | -31.04198 | 36839 ft | 465 kts | 26° |
| 2026-04-17 15:51 | 6.32098 | -31.01008 | 36842 ft | 465 kts | 26° |
| 2026-04-17 15:52 | 6.37746 | -30.97820 | 36839 ft | 465 kts | 26° |
| 2026-04-17 15:52 | 6.43401 | -30.94628 | 36842 ft | 465 kts | 26° |
| 2026-04-17 15:53 | 6.49050 | -30.91439 | 36845 ft | 466 kts | 26° |
| 2026-04-17 15:53 | 6.54698 | -30.88249 | 36845 ft | 466 kts | 26° |
| 2026-04-17 15:54 | 6.60348 | -30.85058 | 36843 ft | 466 kts | 26° |
| 2026-04-17 15:54 | 6.65960 | -30.81887 | 36844 ft | 466 kts | 26° |
| 2026-04-17 15:55 | 6.71611 | -30.78693 | 36844 ft | 466 kts | 26° |
| 2026-04-17 15:55 | 6.77263 | -30.75498 | 36846 ft | 466 kts | 26° |
| 2026-04-17 15:56 | 6.81964 | -30.72840 | 36845 ft | 466 kts | 26° |
| 2026-04-17 15:56 | 6.87618 | -30.69642 | 36842 ft | 466 kts | 26° |
| 2026-04-17 15:57 | 6.93273 | -30.66442 | 36849 ft | 466 kts | 26° |
| 2026-04-17 15:57 | 6.98936 | -30.63237 | 36850 ft | 466 kts | 26° |
| 2026-04-17 15:58 | 7.04600 | -30.60031 | 36849 ft | 466 kts | 26° |
| 2026-04-17 15:58 | 7.10223 | -30.56847 | 36849 ft | 467 kts | 26° |
| 2026-04-17 15:59 | 7.15882 | -30.53642 | 36847 ft | 467 kts | 26° |
| 2026-04-17 15:59 | 7.21541 | -30.50436 | 36854 ft | 467 kts | 26° |
| 2026-04-17 16:00 | 7.27201 | -30.47228 | 36851 ft | 467 kts | 26° |
| 2026-04-17 16:00 | 7.32860 | -30.44020 | 36851 ft | 467 kts | 26° |
| 2026-04-17 16:01 | 7.38527 | -30.40806 | 36851 ft | 467 kts | 26° |
| 2026-04-17 16:01 | 7.44189 | -30.37595 | 36850 ft | 467 kts | 26° |
| 2026-04-17 16:02 | 7.49852 | -30.34382 | 36846 ft | 467 kts | 25° |
| 2026-04-17 16:02 | 7.55479 | -30.31188 | 36854 ft | 467 kts | 25° |
| 2026-04-17 16:03 | 7.61147 | -30.27970 | 36853 ft | 468 kts | 25° |
| 2026-04-17 16:03 | 7.66815 | -30.24750 | 36854 ft | 468 kts | 25° |
| 2026-04-17 16:04 | 7.72486 | -30.21529 | 36855 ft | 468 kts | 25° |
| 2026-04-17 16:04 | 7.78161 | -30.18305 | 36852 ft | 468 kts | 25° |
| 2026-04-17 16:05 | 7.83837 | -30.15078 | 36856 ft | 468 kts | 25° |
| 2026-04-17 16:05 | 7.89516 | -30.11849 | 36855 ft | 468 kts | 25° |
| 2026-04-17 16:06 | 7.95195 | -30.08618 | 36856 ft | 469 kts | 25° |
| 2026-04-17 16:06 | 8.00876 | -30.05386 | 36858 ft | 469 kts | 25° |
| 2026-04-17 16:07 | 8.06557 | -30.02152 | 36857 ft | 469 kts | 25° |
| 2026-04-17 16:07 | 8.12240 | -29.98917 | 36857 ft | 469 kts | 25° |
| 2026-04-17 16:08 | 8.17923 | -29.95680 | 36857 ft | 469 kts | 25° |
| 2026-04-17 16:08 | 8.23581 | -29.92456 | 36855 ft | 469 kts | 25° |
| 2026-04-17 16:09 | 8.29277 | -29.89210 | 36859 ft | 469 kts | 25° |
| 2026-04-17 16:09 | 8.34960 | -29.85970 | 36859 ft | 469 kts | 25° |
| 2026-04-17 16:10 | 8.40645 | -29.82728 | 36859 ft | 469 kts | 25° |
| 2026-04-17 16:10 | 8.46295 | -29.79505 | 36855 ft | 469 kts | 25° |
| 2026-04-17 16:11 | 8.51976 | -29.76263 | 36858 ft | 469 kts | 25° |
| 2026-04-17 16:11 | 8.57661 | -29.73017 | 36857 ft | 469 kts | 25° |
| 2026-04-17 16:12 | 8.63340 | -29.69773 | 36859 ft | 469 kts | 25° |
| 2026-04-17 16:12 | 8.69024 | -29.66526 | 36855 ft | 469 kts | 25° |
| 2026-04-17 16:13 | 8.74700 | -29.63282 | 36858 ft | 469 kts | 25° |
| 2026-04-17 16:13 | 8.80376 | -29.60036 | 36862 ft | 469 kts | 25° |
| 2026-04-17 16:14 | 8.88864 | -29.55182 | 36859 ft | 469 kts | 25° |
| 2026-04-17 16:14 | 8.94540 | -29.51934 | 36861 ft | 469 kts | 25° |
| 2026-04-17 16:15 | 9.00222 | -29.48681 | 36862 ft | 469 kts | 25° |
| 2026-04-17 16:15 | 9.05867 | -29.45448 | 36863 ft | 469 kts | 25° |
| 2026-04-17 16:16 | 9.11545 | -29.42196 | 36867 ft | 469 kts | 25° |
| 2026-04-17 16:16 | 9.17223 | -29.38942 | 36866 ft | 469 kts | 25° |
| 2026-04-17 16:17 | 9.22908 | -29.35682 | 36864 ft | 469 kts | 25° |
| 2026-04-17 16:17 | 9.28594 | -29.32421 | 36866 ft | 469 kts | 25° |
| 2026-04-17 16:18 | 9.34276 | -29.29162 | 36865 ft | 469 kts | 25° |
| 2026-04-17 16:18 | 9.39958 | -29.25901 | 36866 ft | 469 kts | 25° |
| 2026-04-17 16:19 | 9.45641 | -29.22638 | 36865 ft | 470 kts | 25° |
| 2026-04-17 16:19 | 9.51332 | -29.19369 | 36863 ft | 470 kts | 25° |
| 2026-04-17 16:20 | 9.57018 | -29.16102 | 36867 ft | 470 kts | 25° |
| 2026-04-17 16:20 | 9.62673 | -29.12851 | 36870 ft | 470 kts | 25° |
| 2026-04-17 16:21 | 9.68361 | -29.09580 | 36868 ft | 470 kts | 25° |
| 2026-04-17 16:21 | 9.74051 | -29.06307 | 36868 ft | 470 kts | 25° |
| 2026-04-17 16:22 | 9.79760 | -29.03022 | 36869 ft | 470 kts | 25° |
| 2026-04-17 16:22 | 9.85452 | -28.99743 | 36868 ft | 470 kts | 25° |
| 2026-04-17 16:23 | 9.91146 | -28.96463 | 36869 ft | 471 kts | 25° |
| 2026-04-17 16:23 | 9.96803 | -28.93203 | 36866 ft | 471 kts | 25° |
| 2026-04-17 16:24 | 10.02507 | -28.89916 | 36869 ft | 471 kts | 25° |
| 2026-04-17 16:24 | 10.08199 | -28.86634 | 36869 ft | 471 kts | 25° |
| 2026-04-17 16:25 | 10.13899 | -28.83345 | 36867 ft | 471 kts | 25° |
| 2026-04-17 16:25 | 10.19606 | -28.80051 | 36870 ft | 471 kts | 25° |
| 2026-04-17 16:26 | 10.25314 | -28.76754 | 36873 ft | 471 kts | 25° |
| 2026-04-17 16:26 | 10.31017 | -28.73460 | 36876 ft | 471 kts | 25° |
| 2026-04-17 16:27 | 10.36694 | -28.70179 | 36873 ft | 472 kts | 25° |
| 2026-04-17 16:27 | 10.42404 | -28.66878 | 36875 ft | 472 kts | 25° |
| 2026-04-17 16:28 | 10.48109 | -28.63578 | 36871 ft | 472 kts | 24° |
| 2026-04-17 16:28 | 10.53820 | -28.60273 | 36875 ft | 472 kts | 24° |
| 2026-04-17 16:29 | 10.59494 | -28.56989 | 36868 ft | 472 kts | 24° |
| 2026-04-17 16:29 | 10.65201 | -28.53684 | 36873 ft | 472 kts | 24° |
| 2026-04-17 16:30 | 10.70905 | -28.50378 | 36868 ft | 472 kts | 24° |
| 2026-04-17 16:30 | 10.76621 | -28.47065 | 36873 ft | 472 kts | 24° |
| 2026-04-17 16:31 | 10.82331 | -28.43753 | 36875 ft | 472 kts | 24° |
| 2026-04-17 16:31 | 10.88043 | -28.40439 | 36876 ft | 473 kts | 24° |
| 2026-04-17 16:32 | 10.93764 | -28.37119 | 36874 ft | 473 kts | 24° |
| 2026-04-17 16:32 | 10.99479 | -28.33800 | 36879 ft | 473 kts | 24° |
| 2026-04-17 16:33 | 11.05158 | -28.30501 | 36881 ft | 473 kts | 24° |
| 2026-04-17 16:33 | 11.10877 | -28.27177 | 36872 ft | 473 kts | 24° |
| 2026-04-17 16:34 | 11.16598 | -28.23851 | 36880 ft | 473 kts | 24° |
| 2026-04-17 16:34 | 11.22326 | -28.20518 | 36882 ft | 474 kts | 24° |
| 2026-04-17 16:35 | 11.28055 | -28.17183 | 36881 ft | 474 kts | 24° |
| 2026-04-17 16:35 | 11.33779 | -28.13851 | 36884 ft | 474 kts | 24° |
| 2026-04-17 16:36 | 11.39474 | -28.10533 | 36878 ft | 474 kts | 24° |
| 2026-04-17 16:36 | 11.45203 | -28.07194 | 36886 ft | 474 kts | 24° |
| 2026-04-17 16:37 | 11.50929 | -28.03851 | 36879 ft | 474 kts | 24° |
| 2026-04-17 16:37 | 11.56662 | -28.00506 | 36875 ft | 474 kts | 24° |
| 2026-04-17 16:38 | 11.62384 | -27.97167 | 36876 ft | 474 kts | 24° |
| 2026-04-17 16:38 | 11.68118 | -27.93819 | 36880 ft | 474 kts | 24° |
| 2026-04-17 16:39 | 11.73852 | -27.90469 | 36880 ft | 474 kts | 24° |
| 2026-04-17 16:39 | 11.79586 | -27.87117 | 36880 ft | 474 kts | 24° |
| 2026-04-17 16:40 | 11.85317 | -27.83766 | 36880 ft | 474 kts | 23° |
| 2026-04-17 16:40 | 11.91007 | -27.80437 | 36880 ft | 474 kts | 23° |
| 2026-04-17 16:41 | 11.96742 | -27.77080 | 36879 ft | 475 kts | 23° |
| 2026-04-17 16:41 | 12.02478 | -27.73720 | 36881 ft | 475 kts | 23° |
| 2026-04-17 16:42 | 12.07248 | -27.70926 | 36881 ft | 475 kts | 23° |
| 2026-04-17 16:42 | 12.13910 | -27.67021 | 36878 ft | 475 kts | 23° |
| 2026-04-17 16:43 | 12.19639 | -27.63661 | 36881 ft | 475 kts | 23° |
| 2026-04-17 16:43 | 12.24408 | -27.60863 | 36881 ft | 475 kts | 23° |
| 2026-04-17 16:44 | 12.30135 | -27.57501 | 36878 ft | 475 kts | 23° |
| 2026-04-17 16:44 | 12.35862 | -27.54137 | 36880 ft | 475 kts | 23° |
| 2026-04-17 16:45 | 12.41587 | -27.50772 | 36879 ft | 475 kts | 23° |
| 2026-04-17 16:45 | 12.47312 | -27.47406 | 36885 ft | 474 kts | 23° |
| 2026-04-17 16:46 | 12.53043 | -27.44035 | 36883 ft | 474 kts | 23° |
| 2026-04-17 16:46 | 12.58779 | -27.40659 | 36882 ft | 474 kts | 23° |
| 2026-04-17 16:47 | 12.64495 | -27.37293 | 36883 ft | 474 kts | 23° |
| 2026-04-17 16:47 | 12.70176 | -27.33946 | 36880 ft | 474 kts | 23° |
| 2026-04-17 16:48 | 12.75898 | -27.30574 | 36883 ft | 474 kts | 23° |
| 2026-04-17 16:48 | 12.81632 | -27.27191 | 36881 ft | 474 kts | 23° |
| 2026-04-17 16:49 | 12.87354 | -27.23815 | 36881 ft | 475 kts | 23° |
| 2026-04-17 16:49 | 12.93076 | -27.20437 | 36886 ft | 475 kts | 23° |
| 2026-04-17 16:50 | 12.98798 | -27.17056 | 36884 ft | 475 kts | 22° |
| 2026-04-17 16:50 | 13.04488 | -27.13693 | 36882 ft | 475 kts | 22° |
| 2026-04-17 16:51 | 13.10212 | -27.10308 | 36883 ft | 475 kts | 22° |
| 2026-04-17 16:51 | 13.15936 | -27.06921 | 36885 ft | 475 kts | 22° |
| 2026-04-17 16:52 | 13.21661 | -27.03532 | 36886 ft | 475 kts | 22° |
| 2026-04-17 16:52 | 13.27386 | -27.00141 | 36887 ft | 475 kts | 22° |
| 2026-04-17 16:53 | 13.33116 | -26.96745 | 36886 ft | 475 kts | 22° |
| 2026-04-17 16:53 | 13.38816 | -26.93365 | 36885 ft | 475 kts | 22° |
| 2026-04-17 16:54 | 13.44539 | -26.89969 | 36884 ft | 475 kts | 22° |
| 2026-04-17 16:54 | 13.50275 | -26.86564 | 36887 ft | 475 kts | 22° |
| 2026-04-17 16:55 | 13.56005 | -26.83160 | 36886 ft | 475 kts | 22° |
| 2026-04-17 16:55 | 13.61696 | -26.79778 | 36884 ft | 475 kts | 22° |
| 2026-04-17 16:56 | 13.67425 | -26.76371 | 36884 ft | 475 kts | 22° |
| 2026-04-17 16:56 | 13.73149 | -26.72965 | 36888 ft | 475 kts | 22° |
| 2026-04-17 16:57 | 13.78873 | -26.69558 | 36887 ft | 475 kts | 22° |
| 2026-04-17 16:57 | 13.84595 | -26.66149 | 36887 ft | 475 kts | 22° |
| 2026-04-17 16:58 | 13.90317 | -26.62739 | 36889 ft | 475 kts | 22° |
| 2026-04-17 16:58 | 13.96043 | -26.59324 | 36891 ft | 475 kts | 22° |
| 2026-04-17 16:59 | 14.01761 | -26.55911 | 36891 ft | 475 kts | 22° |
| 2026-04-17 16:59 | 14.07471 | -26.52502 | 36890 ft | 475 kts | 22° |
| 2026-04-17 17:00 | 14.13192 | -26.49085 | 36888 ft | 475 kts | 22° |
| 2026-04-17 17:00 | 14.18872 | -26.45689 | 36887 ft | 474 kts | 22° |
| 2026-04-17 17:01 | 14.24582 | -26.42275 | 36888 ft | 474 kts | 22° |
| 2026-04-17 17:01 | 14.30289 | -26.38861 | 36886 ft | 474 kts | 22° |
| 2026-04-17 17:02 | 14.35990 | -26.35448 | 36886 ft | 474 kts | 22° |
| 2026-04-17 17:02 | 14.41689 | -26.32025 | 36888 ft | 474 kts | 22° |
| 2026-04-17 17:03 | 14.47392 | -26.28597 | 36890 ft | 474 kts | 22° |
| 2026-04-17 17:03 | 14.53086 | -26.25174 | 36887 ft | 473 kts | 22° |
| 2026-04-17 17:04 | 14.58792 | -26.21742 | 36887 ft | 474 kts | 22° |
| 2026-04-17 17:04 | 14.64486 | -26.18315 | 36887 ft | 474 kts | 22° |
| 2026-04-17 17:05 | 14.70178 | -26.14888 | 36886 ft | 474 kts | 22° |
| 2026-04-17 17:05 | 14.75873 | -26.11456 | 36887 ft | 474 kts | 22° |
| 2026-04-17 17:06 | 14.81569 | -26.08022 | 36888 ft | 474 kts | 22° |
| 2026-04-17 17:06 | 14.87267 | -26.04584 | 36887 ft | 474 kts | 22° |
| 2026-04-17 17:07 | 14.92934 | -26.01163 | 36891 ft | 474 kts | 22° |
| 2026-04-17 17:07 | 14.98635 | -25.97719 | 36892 ft | 475 kts | 22° |
| 2026-04-17 17:08 | 15.04340 | -25.94272 | 36891 ft | 475 kts | 22° |
| 2026-04-17 17:08 | 15.10046 | -25.90820 | 36890 ft | 475 kts | 22° |
| 2026-04-17 17:09 | 15.15762 | -25.87361 | 36894 ft | 475 kts | 22° |
| 2026-04-17 17:09 | 15.21473 | -25.83903 | 36895 ft | 476 kts | 22° |
| 2026-04-17 17:10 | 15.27191 | -25.80438 | 36894 ft | 476 kts | 22° |
| 2026-04-17 17:10 | 15.32895 | -25.76979 | 36896 ft | 476 kts | 22° |
| 2026-04-17 17:11 | 15.38612 | -25.73511 | 36905 ft | 475 kts | 22° |
| 2026-04-17 17:11 | 15.44091 | -25.69658 | 36901 ft | 488 kts | 34° |
| 2026-04-17 17:12 | 15.48635 | -25.64277 | 36888 ft | 504 kts | 51° |
| 2026-04-17 17:12 | 15.52329 | -25.58068 | 36892 ft | 506 kts | 52° |
| 2026-04-17 17:13 | 15.56033 | -25.51856 | 36894 ft | 506 kts | 52° |
| 2026-04-17 17:13 | 15.59731 | -25.45655 | 36894 ft | 506 kts | 52° |
| 2026-04-17 17:14 | 15.63433 | -25.39439 | 36891 ft | 506 kts | 52° |
| 2026-04-17 17:15 | 15.68984 | -25.30109 | 36893 ft | 506 kts | 52° |
| 2026-04-17 17:15 | 15.72658 | -25.23928 | 36896 ft | 506 kts | 52° |
| 2026-04-17 17:16 | 15.76360 | -25.17695 | 36897 ft | 507 kts | 52° |
| 2026-04-17 17:16 | 15.80055 | -25.11469 | 36894 ft | 507 kts | 52° |
| 2026-04-17 17:17 | 15.83755 | -25.05228 | 36899 ft | 507 kts | 52° |
| 2026-04-17 17:17 | 15.87455 | -24.98983 | 36901 ft | 507 kts | 52° |
| 2026-04-17 17:18 | 15.91129 | -24.92775 | 36897 ft | 507 kts | 52° |
| 2026-04-17 17:18 | 15.94828 | -24.86519 | 36898 ft | 507 kts | 52° |
| 2026-04-17 17:19 | 15.98522 | -24.80268 | 36893 ft | 507 kts | 52° |
| 2026-04-17 17:19 | 16.02209 | -24.74021 | 36716 ft | 505 kts | 52° |
| 2026-04-17 17:19 | 16.04046 | -24.70905 | 36081 ft | 506 kts | 52° |
| 2026-04-17 17:20 | 16.05897 | -24.67770 | 35161 ft | 511 kts | 52° |
| 2026-04-17 17:20 | 16.07770 | -24.64597 | 34080 ft | 519 kts | 52° |
| 2026-04-17 17:20 | 16.09674 | -24.61371 | 32808 ft | 527 kts | 52° |
| 2026-04-17 17:20 | 16.11601 | -24.58100 | 31578 ft | 532 kts | 52° |
| 2026-04-17 17:21 | 16.13533 | -24.54813 | 30479 ft | 532 kts | 52° |
| 2026-04-17 17:21 | 16.15468 | -24.51520 | 29295 ft | 533 kts | 52° |
| 2026-04-17 17:21 | 16.17399 | -24.48236 | 28376 ft | 528 kts | 53° |
| 2026-04-17 17:21 | 16.19301 | -24.45002 | 27538 ft | 521 kts | 53° |
| 2026-04-17 17:22 | 16.21187 | -24.41799 | 26652 ft | 515 kts | 53° |
| 2026-04-17 17:22 | 16.23020 | -24.38685 | 26053 ft | 505 kts | 54° |
| 2026-04-17 17:22 | 16.24831 | -24.35604 | 25498 ft | 494 kts | 54° |
| 2026-04-17 17:22 | 16.26614 | -24.32572 | 24860 ft | 487 kts | 54° |
| 2026-04-17 17:23 | 16.28375 | -24.29577 | 24222 ft | 481 kts | 55° |
| 2026-04-17 17:23 | 16.30110 | -24.26626 | 23524 ft | 476 kts | 56° |
| 2026-04-17 17:23 | 16.31836 | -24.23690 | 22729 ft | 473 kts | 56° |
| 2026-04-17 17:23 | 16.33529 | -24.20800 | 22244 ft | 460 kts | 57° |
| 2026-04-17 17:24 | 16.34624 | -24.18930 | 21850 ft | 455 kts | 57° |
| 2026-04-17 17:24 | 16.36806 | -24.15201 | 21036 ft | 446 kts | 57° |
| 2026-04-17 17:24 | 16.38388 | -24.12498 | 20438 ft | 439 kts | 57° |
| 2026-04-17 17:24 | 16.39968 | -24.09797 | 19851 ft | 434 kts | 58° |
| 2026-04-17 17:25 | 16.41527 | -24.07131 | 19261 ft | 428 kts | 58° |
| 2026-04-17 17:25 | 16.43068 | -24.04496 | 18678 ft | 423 kts | 58° |
| 2026-04-17 17:25 | 16.44594 | -24.01884 | 18077 ft | 419 kts | 59° |
| 2026-04-17 17:25 | 16.46095 | -23.99313 | 17461 ft | 413 kts | 59° |
| 2026-04-17 17:26 | 16.47580 | -23.96765 | 16906 ft | 406 kts | 59° |
| 2026-04-17 17:26 | 16.49035 | -23.94267 | 16349 ft | 400 kts | 59° |
| 2026-04-17 17:26 | 16.50466 | -23.91810 | 15803 ft | 394 kts | 59° |
| 2026-04-17 17:26 | 16.51878 | -23.89384 | 15262 ft | 389 kts | 60° |
| 2026-04-17 17:27 | 16.53273 | -23.86988 | 14722 ft | 383 kts | 60° |
| 2026-04-17 17:27 | 16.54632 | -23.84653 | 14205 ft | 379 kts | 60° |
| 2026-04-17 17:27 | 16.56003 | -23.82296 | 13666 ft | 374 kts | 60° |
| 2026-04-17 17:27 | 16.57342 | -23.79994 | 13129 ft | 368 kts | 60° |
| 2026-04-17 17:28 | 16.58639 | -23.77764 | 12623 ft | 361 kts | 60° |
| 2026-04-17 17:28 | 16.59930 | -23.75543 | 12138 ft | 355 kts | 60° |
| 2026-04-17 17:28 | 16.61200 | -23.73358 | 11673 ft | 349 kts | 60° |
| 2026-04-17 17:28 | 16.62201 | -23.71098 | 11106 ft | 342 kts | 76° |
| 2026-04-17 17:29 | 16.62513 | -23.68655 | 10496 ft | 340 kts | 95° |
| 2026-04-17 17:29 | 16.62225 | -23.66209 | 10284 ft | 338 kts | 101° |
| 2026-04-17 17:29 | 16.61920 | -23.63822 | 10186 ft | 325 kts | 100° |
| 2026-04-17 17:29 | 16.61647 | -23.61531 | 10063 ft | 311 kts | 100° |
| 2026-04-17 17:30 | 16.61389 | -23.59344 | 9924 ft | 297 kts | 100° |
| 2026-04-17 17:30 | 16.61134 | -23.57228 | 9758 ft | 294 kts | 100° |
| 2026-04-17 17:30 | 16.60873 | -23.55103 | 9489 ft | 296 kts | 100° |
| 2026-04-17 17:30 | 16.60611 | -23.52985 | 9165 ft | 292 kts | 100° |
| 2026-04-17 17:31 | 16.60353 | -23.50906 | 8853 ft | 286 kts | 100° |
| 2026-04-17 17:31 | 16.60104 | -23.48897 | 8546 ft | 281 kts | 100° |
| 2026-04-17 17:31 | 16.59855 | -23.46895 | 8245 ft | 275 kts | 99° |
| 2026-04-17 17:31 | 16.59610 | -23.44934 | 7950 ft | 270 kts | 99° |
| 2026-04-17 17:32 | 16.59368 | -23.43000 | 7608 ft | 270 kts | 99° |
| 2026-04-17 17:32 | 16.59119 | -23.41028 | 7137 ft | 275 kts | 98° |
| 2026-04-17 17:32 | 16.58954 | -23.39720 | 7004 ft | 278 kts | 98° |
| 2026-04-17 17:32 | 16.58698 | -23.37682 | 6713 ft | 286 kts | 98° |
| 2026-04-17 17:33 | 16.58440 | -23.35616 | 6489 ft | 289 kts | 98° |
| 2026-04-17 17:33 | 16.58178 | -23.33521 | 6298 ft | 294 kts | 97° |
| 2026-04-17 17:33 | 16.57919 | -23.31431 | 6185 ft | 286 kts | 97° |
| 2026-04-17 17:33 | 16.57667 | -23.29401 | 5983 ft | 277 kts | 97° |
| 2026-04-17 17:34 | 16.57427 | -23.27468 | 5788 ft | 262 kts | 97° |
| 2026-04-17 17:34 | 16.57199 | -23.25635 | 5444 ft | 255 kts | 97° |
| 2026-04-17 17:34 | 16.56974 | -23.23828 | 5242 ft | 248 kts | 97° |
| 2026-04-17 17:34 | 16.56753 | -23.22064 | 5018 ft | 244 kts | 97° |
| 2026-04-17 17:35 | 16.56535 | -23.20310 | 4746 ft | 245 kts | 97° |
| 2026-04-17 17:35 | 16.56316 | -23.18551 | 4514 ft | 243 kts | 97° |
| 2026-04-17 17:35 | 16.56100 | -23.16836 | 4221 ft | 232 kts | 97° |
| 2026-04-17 17:35 | 16.55892 | -23.15220 | 3964 ft | 220 kts | 96° |
| 2026-04-17 17:36 | 16.55697 | -23.13681 | 3664 ft | 206 kts | 96° |
| 2026-04-17 17:36 | 16.55510 | -23.12199 | 3014 ft | 208 kts | 96° |
| 2026-04-17 17:36 | 16.55321 | -23.10731 | 2612 ft | 198 kts | 94° |
| 2026-04-17 17:36 | 16.55137 | -23.09278 | 2508 ft | 202 kts | 94° |
| 2026-04-17 17:37 | 16.54962 | -23.07939 | 2497 ft | 170 kts | 93° |
| 2026-04-17 17:37 | 16.54817 | -23.06806 | 2502 ft | 146 kts | 92° |
| 2026-04-17 17:37 | 16.54690 | -23.05777 | 2505 ft | 142 kts | 92° |
| 2026-04-17 17:37 | 16.54570 | -23.04795 | 2490 ft | 130 kts | 91° |
| 2026-04-17 17:38 | 16.54474 | -23.03865 | 2417 ft | 130 kts | 89° |
| 2026-04-17 17:38 | 16.54393 | -23.02919 | 2315 ft | 130 kts | 89° |
| 2026-04-17 17:38 | 16.54308 | -23.02001 | 2233 ft | 129 kts | 89° |
| 2026-04-17 17:38 | 16.54218 | -23.01081 | 2205 ft | 128 kts | 89° |
| 2026-04-17 17:39 | 16.54128 | -23.00149 | 2207 ft | 129 kts | 89° |
| 2026-04-17 17:39 | 16.54036 | -22.99214 | 2209 ft | 130 kts | 89° |
| 2026-04-17 17:39 | 16.53942 | -22.98292 | 2219 ft | 126 kts | 89° |
| 2026-04-17 17:39 | 16.53850 | -22.97367 | 2211 ft | 129 kts | 90° |
| 2026-04-17 17:40 | 16.53775 | -22.96442 | 2212 ft | 124 kts | 83° |
| 2026-04-17 17:40 | 16.53993 | -22.95618 | 2211 ft | 115 kts | 52° |
| 2026-04-17 17:40 | 16.54589 | -22.95065 | 2207 ft | 118 kts | 22° |
| 2026-04-17 17:40 | 16.55362 | -22.94836 | 2206 ft | 114 kts | 7° |
| 2026-04-17 17:41 | 16.56169 | -22.94781 | 2213 ft | 120 kts | 1° |
| 2026-04-17 17:41 | 16.56991 | -22.94780 | 2208 ft | 116 kts | 359° |
| 2026-04-17 17:41 | 16.57784 | -22.94785 | 2169 ft | 119 kts | 359° |
| 2026-04-17 17:41 | 16.58626 | -22.94791 | 1895 ft | 121 kts | 359° |
| 2026-04-17 17:42 | 16.59450 | -22.94796 | 1512 ft | 116 kts | 359° |
| 2026-04-17 17:42 | 16.60242 | -22.94800 | 1112 ft | 112 kts | 358° |
| 2026-04-17 17:42 | 16.60999 | -22.94807 | 796 ft | 108 kts | 359° |
| 2026-04-17 17:42 | 16.61734 | -22.94819 | 867 ft | 106 kts | 360° |
| 2026-04-17 17:43 | 16.62487 | -22.94829 | 1158 ft | 109 kts | 359° |
| 2026-04-17 17:43 | 16.63256 | -22.94840 | 1449 ft | 111 kts | 358° |
| 2026-04-17 17:43 | 16.64032 | -22.94853 | 1736 ft | 112 kts | 357° |
| 2026-04-17 17:43 | 16.64842 | -22.94868 | 1694 ft | 114 kts | 359° |
| 2026-04-17 17:44 | 16.65611 | -22.94881 | 1621 ft | 108 kts | 359° |
| 2026-04-17 17:44 | 16.66367 | -22.94893 | 1568 ft | 110 kts | 359° |
| 2026-04-17 17:44 | 16.67142 | -22.94903 | 1511 ft | 112 kts | 358° |
| 2026-04-17 17:44 | 16.67906 | -22.94897 | 1403 ft | 110 kts | 360° |
| 2026-04-17 17:45 | 16.68674 | -22.94885 | 1194 ft | 109 kts | 0° |
| 2026-04-17 17:45 | 16.69425 | -22.94884 | 944 ft | 108 kts | 0° |
| 2026-04-17 17:45 | 16.70165 | -22.94897 | 669 ft | 102 kts | 360° |
| 2026-04-17 17:45 | 16.70858 | -22.94891 | 491 ft | 102 kts | 1° |
| 2026-04-17 17:46 | 16.71611 | -22.94881 | 362 ft | 112 kts | 359° |
| 2026-04-17 17:46 | 16.72378 | -22.94888 | 229 ft | 108 kts | 0° |
| 2026-04-17 17:46 | 16.73104 | -22.94890 | 169 ft | 92 kts | 0° |
| 2026-04-17 17:46 | 16.73489 | -22.94889 | 169 ft | 28 kts | 0° |
| 2026-04-17 17:47 | 16.73716 | -22.94892 | 167 ft | 48 kts | 359° |
| 2026-04-17 17:47 | 16.74105 | -22.94896 | 166 ft | 52 kts | 0° |
| 2026-04-17 17:47 | 16.74247 | -22.94864 | 167 ft | 5 kts | 71° |
| 2026-04-17 17:47 | 16.74276 | -22.94781 | 176 ft | 0 kts | 41° |
| 2026-04-17 17:48 | 16.74277 | -22.94781 | 176 ft | 1 kts | 41° |
| 2026-04-17 17:48 | 16.74285 | -22.94712 | 181 ft | 12 kts | 140° |
| 2026-04-17 17:49 | 16.74184 | -22.94698 | 181 ft | 18 kts | 181° |
| 2026-04-17 17:49 | 16.74021 | -22.94699 | 181 ft | 34 kts | 181° |
| 2026-04-17 17:49 | 16.73730 | -22.94696 | 181 ft | 41 kts | 179° |
| 2026-04-17 17:49 | 16.73612 | -22.94630 | 183 ft | 24 kts | 139° |
| 2026-04-17 17:50 | 16.73563 | -22.94592 | 183 ft | 3 kts | 155° |
| 2026-04-17 17:50 | 16.73502 | -22.94587 | 183 ft | 14 kts | 148° |
| 2026-04-17 17:50 | 16.73380 | -22.94598 | 183 ft | 24 kts | 192° |
| 2026-04-17 17:50 | 16.73213 | -22.94593 | 183 ft | 14 kts | 178° |
| 2026-04-17 17:51 | 16.73164 | -22.94577 | 183 ft | 1 kts | 107° |
| 2026-04-17 17:51 | 16.73166 | -22.94543 | 184 ft | 3 kts | 96° |
| 2026-04-17 17:51 | 16.73166 | -22.94510 | 194 ft | 0 kts | 90° |
| 2026-04-17 17:51 | 16.73166 | -22.94508 | 192 ft | 0 kts | 89° |